Sun, Arizona
Current Conditions -  °F | °C
As of 11:58 PM on Friday 28 Nov 2014 (Local Time) from KDMA Reporting Station
Clear Clear  
Wind Chill: 54°   Ceiling: Unl
Heat Index: 54°   Visibility: 10mi
Dew Point: 20°   Wind: 12mph
Humidity: 27%   Direction: 130°SE
Pressure: 29.99"   Gusts: NA
Location:  32.2456°N, 110.948°W
Report Text: KDMA 290658Z AUTO 13010KT 10SM CLR 12/M07 A2999 RMK AO2 SLP126 T01201067 402730116 $
Loading
Personal Weather Stations






























Interactive Weather Map New forecast layout! Learn more

10-Day Weather Forecast

Advertisements
Track Severe Weather on mobile